• Join FlightAware (Why Join?)
  • Login
  • US Flag 
08:55AM EDT


 

Airport Tracker/Info


-or-


 

Live Flight TrackerFlight Track Log ✈ CCA1257 ✈ 18-Dec-2013 ✈ ZLIC / INC - ZSPD / PVG

Flight Track Log - Related Links

Times and Time Zones

All times are in EST time to prevent confusion due to time zone crossing. See the CCA1257 flight status page for this flight to view local times or setup timezone preferences in your user account.

Time Position Orientation Groundspeed Altitude Reporting Facility
EST Latitude Longitude Course Direction KTS MPH feet Rate Location/Type
12:15AM 38.0608 107.1014 115° Southeast  Level Estimated
12:16AM 38.0079 107.2424 115° Southeast  Level Estimated
12:17AM 37.9548 107.3832 116° Southeast  Level Estimated
12:18AM 37.9016 107.5238 116° Southeast  Level Estimated
12:19AM 37.8482 107.6641 116° Southeast  Level Estimated
12:20AM 37.7946 107.8043 116° Southeast  Level Estimated
12:21AM 37.7409 107.9443 116° Southeast  Level Estimated
12:22AM 37.6870 108.0841 116° Southeast  Level Estimated
12:23AM 37.6329 108.2237 116° Southeast  Level Estimated
12:24AM 37.5787 108.3630 116° Southeast  Level Estimated
12:25AM 37.5243 108.5022 116° Southeast  Level Estimated
12:26AM 37.4697 108.6412 116° Southeast  Level Estimated
12:27AM 37.4150 108.7799 116° Southeast  Level Estimated
12:28AM 37.3601 108.9185 116° Southeast  Level Estimated
12:29AM 37.3051 109.0568 117° Southeast  Level Estimated
12:30AM 37.2499 109.1950 117° Southeast  Level Estimated
12:31AM 37.1945 109.3329 117° Southeast  Level Estimated
12:32AM 37.1390 109.4707 117° Southeast  Level Estimated
12:33AM 37.0833 109.6082 117° Southeast  Level Estimated
12:34AM 37.0274 109.7456 117° Southeast  Level Estimated
12:35AM 36.9714 109.8827 117° Southeast  Level Estimated
12:36AM 36.9153 110.0196 117° Southeast  Level Estimated
12:37AM 36.8589 110.1564 117° Southeast  Level Estimated
12:38AM 36.8025 110.2929 117° Southeast  Level Estimated
12:39AM 36.7458 110.4292 117° Southeast  Level Estimated
12:40AM 36.6891 110.5654 117° Southeast  Level Estimated
12:41AM 36.6321 110.7013 118° Southeast  Level Estimated
12:42AM 36.5750 110.8370 118° Southeast  Level Estimated
12:43AM 36.5178 110.9726 118° Southeast  Level Estimated
12:44AM 36.4604 111.1079 118° Southeast  Level Estimated
12:45AM 36.4028 111.2430 118° Southeast  Level Estimated
12:46AM 36.3451 111.3780 118° Southeast  Level Estimated
12:47AM 36.2873 111.5127 118° Southeast  Level Estimated
12:48AM 36.2293 111.6472 118° Southeast  Level Estimated
12:49AM 36.1711 111.7815 118° Southeast  Level Estimated
12:50AM 36.1128 111.9157 118° Southeast  Level Estimated
12:51AM 36.0543 112.0496 118° Southeast  Level Estimated
12:52AM 35.9957 112.1833 118° Southeast  Level Estimated
12:53AM 35.9370 112.3169 118° Southeast  Level Estimated
12:54AM 35.8781 112.4502 119° Southeast  Level Estimated
12:55AM 35.8190 112.5833 119° Southeast  Level Estimated
12:56AM 35.7598 112.7163 119° Southeast  Level Estimated
12:57AM 35.7005 112.8490 119° Southeast  Level Estimated
12:58AM 35.6410 112.9815 119° Southeast  Level Estimated
12:59AM 35.5814 113.1139 119° Southeast  Level Estimated
01:00AM 35.5216 113.2460 119° Southeast  Level Estimated
01:01AM 35.4617 113.3780 119° Southeast  Level Estimated
01:02AM 35.4016 113.5097 119° Southeast  Level Estimated
01:03AM 35.3414 113.6413 119° Southeast  Level Estimated
01:04AM 35.2811 113.7727 119° Southeast  Level Estimated
01:05AM 35.2206 113.9038 119° Southeast  Level Estimated
01:06AM 35.1599 114.0348 119° Southeast  Level Estimated
01:07AM 35.0992 114.1656 120° Southeast  Level Estimated
01:08AM 35.0382 114.2961 120° Southeast  Level Estimated
01:09AM 34.9772 114.4265 120° Southeast  Level Estimated
01:10AM 34.9160 114.5567 120° Southeast  Level Estimated
01:11AM 34.8547 114.6867 120° Southeast  Level Estimated
01:12AM 34.7932 114.8165 120° Southeast  Level Estimated
01:13AM 34.7316 114.9461 120° Southeast  Level Estimated
01:14AM 34.6699 115.0755 120° Southeast  Level Estimated
01:15AM 34.6080 115.2047 120° Southeast  Level Estimated
01:16AM 34.5460 115.3338 120° Southeast  Level Estimated
01:17AM 34.4838 115.4626 120° Southeast  Level Estimated
01:18AM 34.4215 115.5912 120° Southeast  Level Estimated
01:19AM 34.3591 115.7197 120° Southeast  Level Estimated
01:20AM 34.2966 115.8480 121° Southeast  Level Estimated
01:21AM 34.2339 115.9760 121° Southeast  Level Estimated
01:22AM 34.1711 116.1039 121° Southeast  Level Estimated
01:23AM 34.1081 116.2316 121° Southeast  Level Estimated
01:24AM 34.0450 116.3591 121° Southeast  Level Estimated
01:25AM 33.9818 116.4864 121° Southeast  Level Estimated
01:26AM 33.9184 116.6135 121° Southeast  Level Estimated
01:27AM 33.8550 116.7404 121° Southeast  Level Estimated
01:28AM 33.7914 116.8672 121° Southeast  Level Estimated
01:29AM 33.7276 116.9937 121° Southeast  Level Estimated
01:30AM 33.6637 117.1201 121° Southeast  Level Estimated
01:31AM 33.5998 117.2463 121° Southeast  Level Estimated
01:32AM 33.5356 117.3723 121° Southeast  Level Estimated
01:33AM 33.4714 117.4981 121° Southeast  Level Estimated
01:34AM 33.4070 117.6237 122° Southeast  Level Estimated
01:35AM 33.3425 117.7491 122° Southeast  Level Estimated
01:36AM 33.2779 117.8744 122° Southeast  Level Estimated
01:37AM 33.2131 117.9994 122° Southeast  Level Estimated
01:38AM 33.1483 118.1243 122° Southeast  Level Estimated
01:39AM 33.0832 118.2490 122° Southeast  Level Estimated
01:40AM 33.0181 118.3735 122° Southeast  Level Estimated
01:41AM 32.9529 118.4978 122° Southeast  Level Estimated
01:42AM 32.8875 118.6219 122° Southeast  Level Estimated
01:43AM 32.8220 118.7459 122° Southeast  Level Estimated
01:44AM 32.7564 118.8697 122° Southeast  Level Estimated
01:45AM 32.6906 118.9932 122° Southeast  Level Estimated
01:46AM 32.6248 119.1167 122° Southeast  Level Estimated
01:47AM 32.5588 119.2399 122° Southeast  Level Estimated
01:48AM 32.4927 119.3629 122° Southeast  Level Estimated
01:49AM 32.4265 119.4858 123° Southeast  Level Estimated
01:50AM 32.3601 119.6085 123° Southeast  Level Estimated
01:51AM 32.2937 119.7310 123° Southeast  Level Estimated
01:52AM 32.2271 119.8533 123° Southeast  Level Estimated
01:53AM 32.1604 119.9754 123° Southeast  Level Estimated
01:54AM 32.0936 120.0974 123° Southeast  Level Estimated
01:55AM 32.0267 120.2192 123° Southeast  Level Estimated
01:56AM 31.9596 120.3408 123° Southeast  Level Estimated
01:57AM 31.8925 120.4622 123° Southeast  Level Estimated
01:58AM 31.8252 120.5835 123° Southeast  Level Estimated
01:59AM 31.7578 120.7046 123° Southeast  Level Estimated
02:00AM 31.6903 120.8255 123° Southeast  Level Estimated
02:01AM 31.6227 120.9462 123° Southeast  Level Estimated
02:02AM 31.5550 121.0667 123° Southeast  Level Estimated
02:03AM 31.4871 121.1871 123° Southeast  Level Estimated
02:04AM 31.4192 121.3073 124° Southeast  Level Estimated
02:05AM 31.3511 121.4273 124° Southeast  Level Estimated
02:06AM 31.2829 121.5472 124° Southeast  Level Estimated
02:07AM 31.2146 121.6669 124° Southeast  Level Estimated
02:08AM 31.1462 121.7864 124° Southeast  Level Estimated
02:09AM 31.1428 121.7924 124° Southeast  Level Estimated
02:10AM 31.1428 121.7924 221° Southwest  Level Estimated
02:11AM 31.1428 121.7924 221° Southwest  Level Estimated
02:12AM 31.1428 121.7924 221° Southwest  Level Estimated
02:13AM 31.1428 121.7924 221° Southwest  Level Estimated
02:14AM 31.1428 121.7924 221° Southwest  Level Estimated
02:15AM 31.1428 121.7924 221° Southwest  Level Estimated
02:16AM 31.1428 121.7924 221° Southwest  Level Estimated
02:17AM 31.1428 121.7924 221° Southwest  Level Estimated
02:18AM 31.1428 121.7924 221° Southwest  Level Estimated
02:19AM 31.1428 121.7924 221° Southwest  Level Estimated
02:20AM 31.1428 121.7924 221° Southwest  Level Estimated
02:21AM 31.1428 121.7924 221° Southwest  Level Estimated
02:22AM 31.1428 121.7924 221° Southwest  Level Estimated
02:23AM 31.1428 121.7924 221° Southwest  Level Estimated
02:24AM 31.1428 121.7924 221° Southwest  Level Estimated